createdAt,value
2023-04-07T00:00:55.683Z,93.65
2023-04-07T00:03:23.653Z,93.43
2023-04-07T00:05:50.963Z,93.72
2023-04-07T00:08:18.026Z,93.71
2023-04-07T00:10:45.651Z,94.34
2023-04-07T00:13:12.727Z,95.22
2023-04-07T00:15:39.796Z,94.48
2023-04-07T00:18:07.193Z,94.34
2023-04-07T00:20:34.326Z,93.92
2023-04-07T00:23:01.382Z,93.84
2023-04-07T00:25:28.906Z,93.38
2023-04-07T00:27:56.062Z,93.14
2023-04-07T00:30:23.164Z,92.83
2023-04-07T00:32:51.871Z,93.09
2023-04-07T00:35:19.126Z,93.02
2023-04-07T00:37:47.283Z,94.03
2023-04-07T00:40:14.726Z,93.51
2023-04-07T00:42:41.863Z,93.61
2023-04-07T00:45:10.549Z,93.28
2023-04-07T00:47:38.646Z,93.64
2023-04-07T00:50:06.208Z,92.82
2023-04-07T00:52:34.035Z,92.23
2023-04-07T00:55:01.685Z,92.07
2023-04-07T00:57:28.915Z,91.92
2023-04-07T00:59:56.454Z,91.54
2023-04-07T01:02:29.664Z,91.16
2023-04-07T01:05:29.495Z,91.33
2023-04-07T01:08:17.903Z,91.01
2023-04-07T01:11:18.986Z,91.47
2023-04-07T01:13:50.903Z,90.99
2023-04-07T01:16:30.002Z,90.89
2023-04-07T01:19:04.777Z,90.72
2023-04-07T01:21:34.670Z,91.59
2023-04-07T01:24:39.466Z,93.31
2023-04-07T01:27:21.448Z,92.00
2023-04-07T01:29:50.901Z,91.06
2023-04-07T01:32:24.179Z,90.31
2023-04-07T01:34:55.362Z,90.27
2023-04-07T01:37:23.512Z,91.64
2023-04-07T01:39:50.792Z,91.74
2023-04-07T01:42:20.248Z,90.33
2023-04-07T01:44:48.805Z,90.37
2023-04-07T01:47:16.850Z,90.09
2023-04-07T01:49:47.069Z,90.14
2023-04-07T01:52:14.782Z,90.65
2023-04-07T01:54:42.066Z,91.18
2023-04-07T01:57:09.513Z,91.70
2023-04-07T01:59:36.617Z,92.00
2023-04-07T02:02:04.217Z,90.82
2023-04-07T02:04:57.103Z,90.72
2023-04-07T02:07:39.135Z,90.88
2023-04-07T02:10:10.661Z,91.99
2023-04-07T02:12:40.776Z,92.44
2023-04-07T02:15:11.736Z,91.54
2023-04-07T02:17:41.588Z,91.70
2023-04-07T02:20:11.841Z,92.42
2023-04-07T02:22:39.966Z,92.85
2023-04-07T02:25:21.981Z,92.95
2023-04-07T02:27:49.460Z,92.68
2023-04-07T02:30:16.879Z,93.13
2023-04-07T02:32:45.974Z,94.84
2023-04-07T02:35:16.812Z,95.42
2023-04-07T02:37:45.431Z,95.37
2023-04-07T02:40:13.119Z,95.37
2023-04-07T02:42:40.765Z,96.44
2023-04-07T02:45:09.477Z,97.38
2023-04-07T02:47:38.532Z,97.31
2023-04-07T02:50:06.812Z,97.60
2023-04-07T02:52:34.540Z,98.08
2023-04-07T02:55:03.367Z,98.78
2023-04-07T02:57:30.938Z,98.78
2023-04-07T02:59:58.861Z,99.45
2023-04-07T03:02:26.477Z,100.00
2023-04-07T03:04:54.373Z,99.66
2023-04-07T03:07:22.885Z,100.00
2023-04-07T03:09:50.345Z,100.00
2023-04-07T03:12:18.092Z,100.00
2023-04-07T03:14:45.438Z,100.00
2023-04-07T03:17:12.623Z,99.70
2023-04-07T03:19:40.545Z,99.59
2023-04-07T03:22:08.100Z,99.25
2023-04-07T03:24:35.655Z,99.55
2023-04-07T03:27:03.637Z,99.10
2023-04-07T03:29:34.143Z,99.14
2023-04-07T03:32:03.259Z,99.88
2023-04-07T03:34:30.587Z,99.87
2023-04-07T03:36:58.137Z,99.79
2023-04-07T03:39:25.664Z,99.75
2023-04-07T03:41:54.454Z,98.95
2023-04-07T03:44:21.752Z,99.85
2023-04-07T03:46:50.625Z,99.62
2023-04-07T03:49:18.749Z,100.00
2023-04-07T03:51:46.061Z,100.00
2023-04-07T03:54:13.909Z,100.00
2023-04-07T03:56:41.560Z,100.00
2023-04-07T03:59:08.936Z,99.95
2023-04-07T04:01:36.656Z,99.13
2023-04-07T04:04:04.919Z,99.29
2023-04-07T04:06:32.243Z,98.67
2023-04-07T04:08:59.669Z,99.40
2023-04-07T04:11:27.584Z,98.92
2023-04-07T04:13:55.583Z,97.76
2023-04-07T04:16:23.566Z,97.79
2023-04-07T04:18:51.519Z,95.58
2023-04-07T04:21:18.804Z,96.06
2023-04-07T04:23:46.344Z,96.86
2023-04-07T04:26:13.698Z,97.69
2023-04-07T04:28:41.545Z,96.13
2023-04-07T04:31:09.120Z,95.87
2023-04-07T04:33:39.150Z,95.22
2023-04-07T04:36:06.823Z,95.77
2023-04-07T04:38:34.056Z,95.71
2023-04-07T04:41:02.021Z,94.97
2023-04-07T04:43:29.478Z,95.13
2023-04-07T04:45:57.078Z,95.38
2023-04-07T04:48:24.753Z,94.65
2023-04-07T04:50:51.864Z,94.55
2023-04-07T04:53:19.010Z,94.67
2023-04-07T04:55:52.037Z,94.12
2023-04-07T04:58:20.927Z,94.42
2023-04-07T05:00:48.731Z,94.14
2023-04-07T05:03:16.292Z,94.00
2023-04-07T05:05:48.270Z,94.38
2023-04-07T05:08:16.555Z,94.67
2023-04-07T05:10:44.086Z,93.46
2023-04-07T05:13:12.575Z,93.45
2023-04-07T05:15:41.651Z,93.39
2023-04-07T05:18:09.075Z,93.82
2023-04-07T05:20:36.263Z,93.06
2023-04-07T05:23:04.000Z,93.41
2023-04-07T05:25:32.830Z,93.55
2023-04-07T05:28:00.486Z,94.21
2023-04-07T05:30:28.036Z,93.85
2023-04-07T05:32:55.424Z,93.48
2023-04-07T05:35:23.953Z,92.83
2023-04-07T05:37:51.970Z,92.63
2023-04-07T05:40:19.291Z,92.05
2023-04-07T05:42:47.218Z,92.10
2023-04-07T05:45:14.901Z,91.56
2023-04-07T05:47:42.527Z,93.19
2023-04-07T05:50:12.270Z,92.01
2023-04-07T05:52:40.992Z,93.07
2023-04-07T05:55:09.617Z,92.68
2023-04-07T05:57:38.011Z,92.78
2023-04-07T06:00:06.990Z,92.50
2023-04-07T06:02:41.673Z,92.36
2023-04-07T06:05:10.619Z,91.24
2023-04-07T06:07:38.968Z,90.86
2023-04-07T06:10:06.863Z,90.77
2023-04-07T06:12:34.316Z,91.44
2023-04-07T06:15:01.734Z,91.43
2023-04-07T06:17:29.055Z,90.50
2023-04-07T06:19:56.599Z,90.81
2023-04-07T06:22:24.286Z,90.49
2023-04-07T06:24:51.633Z,90.43
2023-04-07T06:27:19.150Z,91.15
2023-04-07T06:29:47.870Z,91.71
2023-04-07T06:32:14.988Z,90.87
2023-04-07T06:34:42.525Z,89.27
2023-04-07T06:37:09.805Z,90.39
2023-04-07T06:39:38.300Z,88.47
2023-04-07T06:42:05.744Z,88.92
2023-04-07T06:44:35.760Z,88.36
2023-04-07T06:47:02.841Z,88.04
2023-04-07T06:49:30.305Z,88.17
2023-04-07T06:51:57.432Z,87.50
2023-04-07T06:54:24.660Z,88.14
2023-04-07T06:56:53.625Z,86.85
2023-04-07T06:59:21.741Z,85.72
2023-04-07T07:01:49.403Z,84.63
2023-04-07T07:04:16.975Z,84.20
2023-04-07T07:06:44.159Z,82.82
2023-04-07T07:09:11.247Z,82.83
2023-04-07T07:11:40.266Z,82.33
2023-04-07T07:14:07.359Z,83.01
2023-04-07T07:16:34.457Z,81.53
2023-04-07T07:19:01.830Z,81.40
2023-04-07T07:21:28.987Z,81.90
2023-04-07T07:23:56.191Z,83.16
2023-04-07T07:26:23.585Z,82.34
2023-04-07T07:28:50.852Z,80.74
2023-04-07T07:31:18.859Z,81.96
2023-04-07T07:33:48.722Z,81.71
2023-04-07T07:36:16.222Z,82.24
2023-04-07T07:38:43.414Z,82.40
2023-04-07T07:41:10.883Z,82.99
2023-04-07T07:43:37.973Z,81.01
2023-04-07T07:46:05.456Z,80.87
2023-04-07T07:48:33.051Z,79.83
2023-04-07T07:51:00.164Z,81.77
2023-04-07T07:53:27.399Z,82.71
2023-04-07T07:55:56.124Z,82.66
2023-04-07T07:58:23.290Z,82.38
2023-04-07T08:00:50.441Z,80.04
2023-04-07T08:03:19.970Z,82.13
2023-04-07T08:05:48.713Z,80.62
2023-04-07T08:08:15.809Z,82.19
2023-04-07T08:10:43.247Z,82.39
2023-04-07T08:13:10.741Z,80.26
2023-04-07T08:15:37.982Z,78.57
2023-04-07T08:18:07.302Z,77.33
2023-04-07T08:20:34.578Z,77.57
2023-04-07T08:23:05.082Z,80.37
2023-04-07T08:25:32.434Z,81.16
2023-04-07T08:27:59.474Z,80.80
2023-04-07T08:30:26.530Z,79.98
2023-04-07T08:32:53.889Z,78.90
2023-04-07T08:35:20.996Z,77.80
2023-04-07T08:37:48.908Z,79.33
2023-04-07T08:40:16.976Z,78.63
2023-04-07T08:42:48.383Z,83.29
2023-04-07T08:45:17.820Z,82.16
2023-04-07T08:47:48.188Z,82.92
2023-04-07T08:50:17.330Z,84.59
2023-04-07T08:52:48.060Z,82.48
2023-04-07T08:55:15.579Z,81.54
2023-04-07T08:57:43.600Z,82.59
2023-04-07T09:00:12.121Z,84.95
2023-04-07T09:02:43.698Z,85.99
2023-04-07T09:05:12.066Z,83.54
2023-04-07T09:07:45.879Z,80.98
2023-04-07T09:10:13.230Z,79.93
2023-04-07T09:12:40.432Z,78.66
2023-04-07T09:15:08.409Z,80.81
2023-04-07T09:17:36.082Z,79.98
2023-04-07T09:20:04.338Z,78.92
2023-04-07T09:22:48.151Z,79.31
2023-04-07T09:25:18.617Z,79.30
2023-04-07T09:27:59.292Z,81.71
2023-04-07T09:30:27.323Z,81.42
2023-04-07T09:32:54.913Z,80.57
2023-04-07T09:35:23.925Z,81.83
2023-04-07T09:38:07.802Z,79.93
2023-04-07T09:40:36.581Z,77.58
2023-04-07T09:43:05.928Z,77.45
2023-04-07T09:45:40.346Z,76.21
2023-04-07T09:48:27.896Z,75.56
2023-04-07T09:51:06.573Z,75.90
2023-04-07T09:53:46.703Z,77.38
2023-04-07T09:56:16.386Z,75.52
2023-04-07T09:58:46.723Z,73.75
2023-04-07T10:01:17.018Z,71.89
2023-04-07T10:03:47.251Z,71.77
2023-04-07T10:06:16.642Z,74.27
2023-04-07T10:08:44.512Z,75.95
2023-04-07T10:11:12.019Z,71.96
2023-04-07T10:13:40.846Z,71.66
2023-04-07T10:16:08.557Z,70.96
2023-04-07T10:18:37.111Z,69.95
2023-04-07T10:21:07.908Z,70.58
2023-04-07T10:24:20.042Z,74.17
2023-04-07T10:26:53.675Z,71.56
2023-04-07T10:29:22.436Z,69.82
2023-04-07T10:31:50.057Z,67.09
2023-04-07T10:34:18.217Z,64.67
2023-04-07T10:37:14.298Z,63.71
2023-04-07T10:39:41.536Z,63.88
2023-04-07T10:42:37.478Z,64.55
2023-04-07T10:45:06.210Z,63.88
2023-04-07T10:47:33.957Z,65.25
2023-04-07T10:50:12.991Z,64.28
2023-04-07T10:52:40.983Z,63.62
2023-04-07T10:55:33.058Z,65.46
2023-04-07T10:58:22.669Z,66.89
2023-04-07T11:01:08.573Z,66.53
2023-04-07T11:03:40.792Z,66.15
2023-04-07T11:06:10.032Z,67.84
2023-04-07T11:08:37.294Z,67.74
2023-04-07T11:11:09.236Z,66.36
2023-04-07T11:13:48.093Z,66.64
2023-04-07T11:16:17.990Z,67.48
2023-04-07T11:18:48.051Z,67.63
2023-04-07T11:21:19.501Z,65.41
2023-04-07T11:23:48.373Z,65.59
2023-04-07T11:26:16.498Z,66.52
2023-04-07T11:28:54.397Z,71.20
2023-04-07T11:31:26.596Z,71.67
2023-04-07T11:33:59.327Z,71.77
2023-04-07T11:36:28.614Z,70.18
2023-04-07T11:38:57.665Z,71.78
2023-04-07T11:41:27.490Z,71.39
2023-04-07T11:44:08.420Z,72.05
2023-04-07T11:46:36.943Z,74.22
2023-04-07T11:49:15.581Z,73.11
2023-04-07T11:51:44.427Z,73.11
2023-04-07T11:54:11.791Z,70.58
2023-04-07T11:56:44.687Z,69.36
2023-04-07T11:59:23.406Z,69.67
2023-04-07T12:01:53.432Z,68.29
2023-04-07T12:04:23.007Z,69.61
2023-04-07T12:06:50.305Z,69.69
2023-04-07T12:09:27.895Z,70.95
2023-04-07T12:11:57.214Z,71.19
2023-04-07T12:14:25.688Z,69.35
2023-04-07T12:16:56.344Z,69.97
2023-04-07T12:19:25.299Z,68.80
2023-04-07T12:21:52.425Z,69.69
2023-04-07T12:24:19.628Z,70.52
2023-04-07T12:26:48.074Z,72.42
2023-04-07T12:29:15.426Z,72.24
2023-04-07T12:31:42.695Z,72.69
2023-04-07T12:34:10.184Z,74.25
2023-04-07T12:36:37.322Z,73.32
2023-04-07T12:39:04.743Z,73.28
2023-04-07T12:41:32.510Z,73.79
2023-04-07T12:43:59.709Z,72.80
2023-04-07T12:46:27.064Z,74.46
2023-04-07T12:48:54.523Z,74.37
2023-04-07T12:51:22.083Z,73.92
2023-04-07T12:53:49.651Z,74.17
2023-04-07T12:56:17.319Z,73.85
2023-04-07T12:58:44.405Z,73.21
2023-04-07T13:01:11.899Z,73.41
2023-04-07T13:03:39.630Z,71.74
2023-04-07T13:06:06.888Z,71.38
2023-04-07T13:08:34.116Z,71.65
2023-04-07T13:11:01.597Z,71.82
2023-04-07T13:13:28.754Z,71.13
2023-04-07T13:15:55.942Z,71.86
2023-04-07T13:18:23.583Z,72.33
2023-04-07T13:21:02.932Z,72.24
2023-04-07T13:23:43.193Z,71.37
2023-04-07T13:26:20.674Z,71.19
2023-04-07T13:28:48.018Z,70.94
2023-04-07T13:31:16.448Z,70.86
2023-04-07T13:33:43.874Z,71.21
2023-04-07T13:36:11.265Z,72.35
2023-04-07T13:38:38.419Z,73.77
2023-04-07T13:41:05.479Z,74.76
2023-04-07T13:43:32.822Z,74.31
2023-04-07T13:45:59.859Z,74.21
2023-04-07T13:48:26.894Z,74.62
2023-04-07T13:50:54.271Z,74.81
2023-04-07T13:53:21.768Z,76.14
2023-04-07T13:55:48.938Z,75.62
2023-04-07T13:58:17.223Z,75.67
2023-04-07T14:00:44.264Z,73.09
2023-04-07T14:03:11.837Z,73.38
2023-04-07T14:05:39.039Z,72.76
2023-04-07T14:08:06.886Z,74.65
2023-04-07T14:10:34.674Z,73.58
2023-04-07T14:13:01.723Z,73.53
2023-04-07T14:15:28.789Z,75.62
2023-04-07T14:17:56.303Z,76.71
2023-04-07T14:20:24.496Z,74.12
2023-04-07T14:22:53.173Z,74.50
2023-04-07T14:25:20.892Z,75.17
2023-04-07T14:27:47.998Z,75.50
2023-04-07T14:30:15.015Z,74.47
2023-04-07T14:32:42.393Z,74.63
2023-04-07T14:35:09.703Z,74.32
2023-04-07T14:37:37.090Z,74.21
2023-04-07T14:40:05.755Z,74.60
2023-04-07T14:42:33.860Z,74.76
2023-04-07T14:45:01.814Z,74.43
2023-04-07T14:47:29.361Z,74.60
2023-04-07T14:49:56.485Z,74.95
2023-04-07T14:52:23.610Z,75.85
2023-04-07T14:54:50.913Z,74.61
2023-04-07T14:57:18.023Z,75.27
2023-04-07T14:59:45.576Z,74.09
2023-04-07T15:02:12.964Z,74.82
2023-04-07T15:04:40.323Z,76.17
2023-04-07T15:07:07.591Z,77.45
2023-04-07T15:09:35.222Z,77.22
2023-04-07T15:12:02.373Z,77.00
2023-04-07T15:14:29.669Z,77.60
2023-04-07T15:16:57.065Z,77.64
2023-04-07T15:19:24.169Z,77.68
2023-04-07T15:21:51.281Z,77.84
2023-04-07T15:24:19.669Z,78.21
2023-04-07T15:26:46.821Z,77.84
2023-04-07T15:29:13.941Z,78.19
2023-04-07T15:31:41.373Z,78.62
2023-04-07T15:34:08.409Z,78.99
2023-04-07T15:36:35.625Z,79.64
2023-04-07T15:39:04.790Z,80.06
2023-04-07T15:41:31.847Z,81.13
2023-04-07T15:44:03.005Z,80.67
2023-04-07T15:46:32.236Z,79.22
2023-04-07T15:48:59.914Z,80.51
2023-04-07T15:51:27.697Z,80.04
2023-04-07T15:53:55.054Z,81.02
2023-04-07T15:56:24.656Z,81.55
2023-04-07T15:58:52.296Z,82.20
2023-04-07T16:01:20.242Z,82.03
2023-04-07T16:03:48.130Z,82.08
2023-04-07T16:06:15.731Z,81.82
2023-04-07T16:08:42.846Z,81.63
2023-04-07T16:11:10.356Z,82.59
2023-04-07T16:13:37.493Z,81.64
2023-04-07T16:16:04.804Z,83.80
2023-04-07T16:18:32.138Z,83.28
2023-04-07T16:20:59.224Z,83.53
2023-04-07T16:23:26.445Z,83.79
2023-04-07T16:25:53.774Z,83.85
2023-04-07T16:28:20.909Z,83.29
2023-04-07T16:30:47.916Z,83.65
2023-04-07T16:33:15.267Z,83.80
2023-04-07T16:35:42.376Z,84.97
2023-04-07T16:38:09.540Z,84.90
2023-04-07T16:40:36.913Z,85.86
2023-04-07T16:43:04.029Z,86.87
2023-04-07T16:45:31.115Z,87.64
2023-04-07T16:47:58.590Z,87.01
2023-04-07T16:50:25.735Z,87.36
2023-04-07T16:52:52.933Z,86.32
2023-04-07T16:55:20.446Z,86.82
2023-04-07T16:57:48.289Z,87.58
2023-04-07T17:00:15.785Z,86.85
2023-04-07T17:02:43.312Z,87.89
2023-04-07T17:05:10.596Z,87.86
2023-04-07T17:07:37.616Z,87.12
2023-04-07T17:10:05.294Z,87.53
2023-04-07T17:12:32.320Z,88.47
2023-04-07T17:14:59.302Z,89.19
2023-04-07T17:17:26.676Z,88.28
2023-04-07T17:19:55.591Z,88.59
2023-04-07T17:22:23.865Z,88.23
2023-04-07T17:24:51.931Z,87.08
2023-04-07T17:27:18.944Z,87.56
2023-04-07T17:29:45.979Z,87.38
2023-04-07T17:32:13.372Z,87.69
2023-04-07T17:34:41.054Z,87.47
2023-04-07T17:37:08.042Z,88.98
2023-04-07T17:39:35.401Z,89.45
2023-04-07T17:42:02.436Z,88.80
2023-04-07T17:44:31.012Z,89.23
2023-04-07T17:46:58.985Z,89.57
2023-04-07T17:49:26.675Z,90.54
2023-04-07T17:51:54.148Z,90.76
2023-04-07T17:54:21.505Z,90.51
2023-04-07T17:56:48.513Z,89.68
2023-04-07T17:59:15.894Z,90.57
2023-04-07T18:01:43.253Z,89.71
2023-04-07T18:04:10.840Z,90.51
2023-04-07T18:06:38.010Z,90.20
2023-04-07T18:09:05.039Z,90.47
2023-04-07T18:11:32.791Z,90.25
2023-04-07T18:14:00.528Z,90.43
2023-04-07T18:16:27.636Z,91.34
2023-04-07T18:18:55.044Z,91.95
2023-04-07T18:21:22.055Z,93.21
2023-04-07T18:23:49.350Z,92.91
2023-04-07T18:26:16.943Z,93.39
2023-04-07T18:28:43.944Z,93.54
2023-04-07T18:31:11.071Z,93.46
2023-04-07T18:33:38.434Z,92.69
2023-04-07T18:36:08.021Z,92.67
2023-04-07T18:38:36.475Z,93.39
2023-04-07T18:41:06.013Z,94.54
2023-04-07T18:43:33.099Z,96.00
2023-04-07T18:46:00.199Z,96.68
2023-04-07T18:48:27.775Z,94.58
2023-04-07T18:50:55.574Z,93.97
2023-04-07T18:53:23.945Z,94.46
2023-04-07T18:55:51.698Z,93.71
2023-04-07T18:58:19.975Z,94.65
2023-04-07T19:00:49.858Z,93.76
2023-04-07T19:03:17.827Z,94.20
2023-04-07T19:05:48.066Z,93.98
2023-04-07T19:08:16.003Z,95.09
2023-04-07T19:10:45.757Z,95.30
2023-04-07T19:13:16.195Z,96.33
2023-04-07T19:15:46.172Z,95.49
2023-04-07T19:18:13.261Z,95.32
2023-04-07T19:20:40.564Z,95.36
2023-04-07T19:23:07.980Z,95.28
2023-04-07T19:25:36.438Z,95.83
2023-04-07T19:28:03.654Z,96.67
2023-04-07T19:30:30.970Z,96.91
2023-04-07T19:33:00.126Z,95.47
2023-04-07T19:35:27.395Z,95.84
2023-04-07T19:37:54.809Z,96.29
2023-04-07T19:40:21.887Z,97.06
2023-04-07T19:42:49.792Z,95.22
2023-04-07T19:45:17.258Z,94.94
2023-04-07T19:47:44.531Z,95.33
2023-04-07T19:50:11.969Z,96.19
2023-04-07T19:52:39.325Z,95.64
2023-04-07T19:55:07.388Z,95.66
2023-04-07T19:57:35.986Z,97.55
2023-04-07T20:00:04.424Z,96.79
2023-04-07T20:02:31.699Z,97.38
2023-04-07T20:04:59.169Z,97.44
2023-04-07T20:07:27.184Z,98.03
2023-04-07T20:09:55.009Z,97.03
2023-04-07T20:12:22.400Z,97.67
2023-04-07T20:14:49.416Z,98.22
2023-04-07T20:17:16.598Z,98.06
2023-04-07T20:19:43.973Z,97.37
2023-04-07T20:22:11.477Z,96.55
2023-04-07T20:24:39.215Z,96.20
2023-04-07T20:27:06.594Z,95.84
2023-04-07T20:29:33.754Z,96.70
2023-04-07T20:32:01.147Z,97.31
2023-04-07T20:34:28.669Z,97.18
2023-04-07T20:36:55.898Z,97.06
2023-04-07T20:39:23.034Z,97.15
2023-04-07T20:41:50.749Z,96.52
2023-04-07T20:44:18.420Z,97.05
2023-04-07T20:46:48.546Z,96.77
2023-04-07T20:49:16.070Z,96.83
2023-04-07T20:51:43.180Z,96.90
2023-04-07T20:54:10.382Z,97.71
2023-04-07T20:56:37.891Z,98.26
2023-04-07T20:59:04.985Z,99.21
2023-04-07T21:01:32.313Z,98.96
2023-04-07T21:04:02.340Z,98.40
2023-04-07T21:06:29.501Z,99.44
2023-04-07T21:08:56.816Z,100.00
2023-04-07T21:11:24.319Z,100.00
2023-04-07T21:13:51.516Z,100.00
2023-04-07T21:16:19.158Z,100.00
2023-04-07T21:18:46.783Z,100.00
2023-04-07T21:21:14.187Z,100.00
2023-04-07T21:23:41.284Z,100.00
2023-04-07T21:26:08.669Z,100.00
2023-04-07T21:28:35.919Z,100.00
2023-04-07T21:31:03.961Z,100.00
2023-04-07T21:33:31.422Z,100.00
2023-04-07T21:36:00.645Z,100.00
2023-04-07T21:38:28.019Z,100.00
2023-04-07T21:40:57.531Z,100.00
2023-04-07T21:43:24.903Z,100.00
2023-04-07T21:45:52.341Z,100.00
2023-04-07T21:48:23.458Z,100.00
2023-04-07T21:50:53.449Z,100.00
2023-04-07T21:53:21.025Z,100.00
2023-04-07T21:55:48.067Z,100.00
2023-04-07T21:58:15.499Z,100.00
2023-04-07T22:00:42.852Z,100.00
2023-04-07T22:03:11.033Z,100.00
2023-04-07T22:05:38.475Z,100.00
2023-04-07T22:08:05.603Z,100.00
2023-04-07T22:10:33.067Z,100.00
2023-04-07T22:13:00.284Z,100.00
2023-04-07T22:15:27.369Z,100.00
2023-04-07T22:17:54.746Z,100.00
2023-04-07T22:20:21.933Z,100.00
2023-04-07T22:22:48.958Z,100.00
2023-04-07T22:25:16.402Z,100.00
2023-04-07T22:27:43.468Z,100.00
2023-04-07T22:30:10.973Z,100.00
2023-04-07T22:32:38.530Z,100.00
2023-04-07T22:35:05.921Z,100.00
2023-04-07T22:37:33.011Z,100.00
2023-04-07T22:40:00.447Z,100.00
2023-04-07T22:42:27.623Z,100.00
2023-04-07T22:44:54.709Z,100.00
2023-04-07T22:47:22.611Z,100.00
2023-04-07T22:49:49.722Z,100.00
2023-04-07T22:52:16.828Z,100.00
2023-04-07T22:54:44.222Z,100.00
2023-04-07T22:57:11.432Z,100.00
2023-04-07T22:59:38.628Z,100.00
2023-04-07T23:02:06.274Z,100.00
2023-04-07T23:04:33.503Z,100.00
2023-04-07T23:07:00.566Z,100.00
2023-04-07T23:09:27.948Z,100.00
2023-04-07T23:11:55.010Z,100.00
2023-04-07T23:14:22.104Z,100.00
2023-04-07T23:16:49.587Z,100.00
2023-04-07T23:19:17.225Z,100.00
2023-04-07T23:21:44.317Z,100.00
2023-04-07T23:24:11.706Z,100.00
2023-04-07T23:26:38.913Z,100.00
2023-04-07T23:29:05.981Z,100.00
2023-04-07T23:31:33.491Z,100.00
2023-04-07T23:34:01.197Z,100.00
2023-04-07T23:36:28.622Z,100.00
2023-04-07T23:38:56.267Z,100.00
2023-04-07T23:41:23.544Z,100.00
2023-04-07T23:43:50.680Z,100.00
2023-04-07T23:46:18.230Z,100.00
2023-04-07T23:48:45.486Z,100.00
2023-04-07T23:51:12.874Z,100.00
2023-04-07T23:53:40.354Z,100.00
2023-04-07T23:56:07.869Z,100.00
2023-04-07T23:58:34.992Z,100.00
